Time;durP1;ratioP1;P1;durP2;ratioP2;P2;SDS_P1;SDS_P2;PMS_P1;PMS_P2;Temp;Humidity;BMP_temperature;BMP_pressure;BME280_temperature;BME280_humidity;BME280_pressure;Samples;Min_cycle;Max_cycle;Signal;HPM_P1;HPM_P2
2021/11/11 00:01:51;;;;;;;1999.90;999.90;;;1.90;99.90;;;;;;4973466;28;20693;-79
2021/11/11 00:04:19;;;;;;;1999.90;999.90;;;2.00;99.90;;;;;;4973036;28;20232;-79
2021/11/11 00:06:45;;;;;;;1999.90;999.90;;;2.10;99.90;;;;;;4972859;28;20212;-80
2021/11/11 00:09:12;;;;;;;1999.90;999.90;;;;;;;;;;4973345;28;20188;-82
2021/11/11 00:11:37;;;;;;;1999.90;999.90;;;2.00;99.90;;;;;;4973900;28;20220;-84
2021/11/11 00:14:03;;;;;;;1999.90;999.90;;;2.00;99.90;;;;;;4974364;28;20609;-82
2021/11/11 00:16:28;;;;;;;1999.90;999.90;;;2.00;99.90;;;;;;4973452;28;20241;-79
2021/11/11 00:18:54;;;;;;;1999.90;999.90;;;2.00;99.90;;;;;;4972739;28;20216;-80
2021/11/11 00:21:20;;;;;;;1999.90;999.90;;;2.00;99.90;;;;;;4988971;28;20219;-79
2021/11/11 00:23:45;;;;;;;1999.90;999.90;;;2.10;99.90;;;;;;4972225;28;20185;-79
2021/11/11 00:26:11;;;;;;;1999.90;999.90;;;2.00;99.90;;;;;;4972967;28;20664;-81
2021/11/11 00:28:36;;;;;;;1999.90;999.90;;;1.90;99.90;;;;;;4973279;28;20183;-84
2021/11/11 00:31:02;;;;;;;1999.90;999.90;;;1.90;99.90;;;;;;4973743;28;20577;-82
2021/11/11 00:33:27;;;;;;;1999.90;999.90;;;1.90;99.90;;;;;;4990142;28;20257;-81
2021/11/11 00:35:53;;;;;;;1999.90;999.90;;;1.90;99.90;;;;;;4989683;28;20250;-85
2021/11/11 00:38:19;;;;;;;1999.90;999.90;;;1.90;99.90;;;;;;4972969;28;20204;-81
2021/11/11 00:40:44;;;;;;;1999.90;999.90;;;1.90;99.90;;;;;;4989873;28;20183;-85
2021/11/11 00:43:10;;;;;;;1999.90;999.90;;;1.90;99.90;;;;;;4973329;28;20193;-81
2021/11/11 00:45:38;;;;;;;1999.90;999.90;;;2.00;99.90;;;;;;4989528;28;20231;-82
2021/11/11 00:48:06;;;;;;;1999.90;999.90;;;1.80;99.90;;;;;;4973071;28;20218;-81
2021/11/11 00:50:32;;;;;;;1999.90;999.90;;;1.80;99.90;;;;;;4973122;28;20766;-82
2021/11/11 00:52:58;;;;;;;1999.90;999.90;;;1.80;99.90;;;;;;4972700;28;20183;-81
2021/11/11 00:55:24;;;;;;;1999.90;999.90;;;1.70;99.90;;;;;;4973554;28;20179;-82
2021/11/11 00:57:50;;;;;;;1999.90;999.90;;;1.80;99.90;;;;;;4972988;28;20207;-82
2021/11/11 01:00:16;;;;;;;1999.90;999.90;;;1.70;99.90;;;;;;4973296;28;20202;-83
2021/11/11 01:02:44;;;;;;;1999.90;999.90;;;1.70;99.90;;;;;;4973321;28;20183;-81
2021/11/11 01:05:10;;;;;;;1999.90;999.90;;;;;;;;;;4988702;28;20183;-83
2021/11/11 01:07:36;;;;;;;1999.90;999.90;;;1.60;99.90;;;;;;4989094;28;20189;-82
2021/11/11 01:10:14;;;;;;;1999.90;999.90;;;1.60;99.90;;;;;;4972937;28;20215;-83
2021/11/11 01:12:40;;;;;;;1999.90;999.90;;;;;;;;;;4971721;28;20180;-84
2021/11/11 01:15:07;;;;;;;1999.90;999.90;;;;;;;;;;4972992;28;20651;-83
2021/11/11 01:17:34;;;;;;;1999.90;999.90;;;;;;;;;;4973168;28;20201;-85
2021/11/11 01:20:00;;;;;;;1999.90;999.90;;;;;;;;;;4972530;28;20207;-82
2021/11/11 01:22:27;;;;;;;1999.90;999.90;;;;;;;;;;4989437;28;20254;-82
2021/11/11 01:24:53;;;;;;;1999.90;999.90;;;;;;;;;;4973062;28;20186;-81
2021/11/11 01:27:19;;;;;;;1999.90;999.90;;;;;;;;;;4988964;28;20204;-81
2021/11/11 01:29:46;;;;;;;1999.90;999.90;;;;;;;;;;4972931;28;20188;-81
2021/11/11 01:32:12;;;;;;;1999.90;999.90;;;;;;;;;;4973015;28;20177;-85
2021/11/11 01:34:38;;;;;;;1999.90;999.90;;;;;;;;;;4989177;28;20255;-85
2021/11/11 01:37:04;;;;;;;1999.90;999.90;;;;;;;;;;4972892;28;20692;-82
2021/11/11 01:39:30;;;;;;;1999.90;999.90;;;;;;;;;;4973063;28;20727;-84
2021/11/11 01:41:57;;;;;;;1999.90;999.90;;;;;;;;;;4989065;28;20183;-84
2021/11/11 01:44:23;;;;;;;1999.90;999.90;;;;;;;;;;4989286;28;20175;-83
2021/11/11 01:46:50;;;;;;;1999.90;999.90;;;;;;;;;;4988819;28;20261;-80
2021/11/11 01:49:17;;;;;;;1999.90;999.90;;;;;;;;;;4972503;28;20184;-82
2021/11/11 01:51:46;;;;;;;1999.90;999.90;;;;;;;;;;4988883;28;20212;-81
2021/11/11 01:54:13;;;;;;;1999.90;999.90;;;;;;;;;;4989007;28;20594;-84
2021/11/11 01:56:39;;;;;;;1999.90;999.90;;;;;;;;;;4972997;28;20672;-83
2021/11/11 01:59:06;;;;;;;1999.90;999.90;;;;;;;;;;4974179;28;20181;-82
2021/11/11 02:01:33;;;;;;;1999.90;999.90;;;;;;;;;;4973233;28;20193;-83
2021/11/11 02:03:59;;;;;;;1999.90;999.90;;;;;;;;;;4976148;28;20188;-83
2021/11/11 02:06:25;;;;;;;1999.90;999.90;;;;;;;;;;4992588;28;20184;-82
2021/11/11 02:08:52;;;;;;;1999.90;999.90;;;;;;;;;;4976554;28;20616;-81
2021/11/11 02:11:19;;;;;;;1999.90;999.90;;;;;;;;;;4976024;28;20219;-81
2021/11/11 02:13:44;;;;;;;1999.90;999.90;;;1.50;99.90;;;;;;4976272;28;20365;-82
2021/11/11 02:16:10;;;;;;;1999.90;999.90;;;1.50;99.90;;;;;;4976305;28;20263;-82
2021/11/11 02:18:36;;;;;;;1999.90;999.90;;;;;;;;;;4992088;28;20195;-81
2021/11/11 02:21:03;;;;;;;1999.90;999.90;;;1.30;99.90;;;;;;4992521;28;20227;-81
2021/11/11 02:23:29;;;;;;;1999.90;999.90;;;1.20;99.90;;;;;;4992144;28;20244;-86
2021/11/11 02:25:54;;;;;;;1999.90;999.90;;;1.30;99.90;;;;;;4975685;28;20668;-83
2021/11/11 02:28:20;;;;;;;1999.90;999.90;;;1.40;99.90;;;;;;4992106;28;20204;-83
2021/11/11 02:30:48;;;;;;;1999.90;999.90;;;1.50;99.90;;;;;;4976009;28;20204;-81
2021/11/11 02:33:16;;;;;;;1999.90;999.90;;;1.40;99.90;;;;;;4975890;28;20180;-81
2021/11/11 02:35:42;;;;;;;1999.90;999.90;;;1.40;99.90;;;;;;4975589;28;20251;-81
2021/11/11 02:38:08;;;;;;;1999.90;999.90;;;1.40;99.90;;;;;;4975685;28;20660;-83
2021/11/11 02:40:33;;;;;;;1999.90;999.90;;;1.40;99.90;;;;;;4975612;28;20185;-85
2021/11/11 02:42:59;;;;;;;1999.90;999.90;;;1.30;99.90;;;;;;4976082;28;20196;-81
2021/11/11 02:45:30;;;;;;;1999.90;999.90;;;1.30;99.90;;;;;;4991927;28;20177;-81
2021/11/11 02:47:56;;;;;;;1999.90;999.90;;;;;;;;;;4991508;28;20213;-85
2021/11/11 02:50:22;;;;;;;1999.90;999.90;;;1.30;99.90;;;;;;4975738;28;20212;-82
2021/11/11 02:52:48;;;;;;;1999.90;999.90;;;;;;;;;;4991678;28;20184;-80
2021/11/11 02:55:15;;;;;;;1999.90;999.90;;;;;;;;;;4975671;28;20215;-82
2021/11/11 02:57:42;;;;;;;1999.90;999.90;;;1.20;99.90;;;;;;4991794;28;20205;-83
2021/11/11 03:00:16;;;;;;;1999.90;999.90;;;1.20;99.90;;;;;;4975560;28;20574;-83
2021/11/11 03:02:44;;;;;;;1999.90;999.90;;;;;;;;;;4991091;28;20181;-81
2021/11/11 03:05:11;;;;;;;1999.90;999.90;;;;;;;;;;4975546;28;20200;-81
2021/11/11 03:07:38;;;;;;;1999.90;999.90;;;;;;;;;;4975403;28;20275;-82
2021/11/11 03:10:05;;;;;;;1999.90;999.90;;;;;;;;;;4974875;28;20296;-81
2021/11/11 03:12:32;;;;;;;1999.90;999.90;;;;;;;;;;4991656;28;20268;-81
2021/11/11 03:14:59;;;;;;;1999.90;999.90;;;;;;;;;;4974641;28;20187;-82
2021/11/11 03:17:26;;;;;;;1999.90;999.90;;;;;;;;;;4975097;28;20205;-81
2021/11/11 03:19:52;;;;;;;1999.90;999.90;;;;;;;;;;4991210;28;20185;-81
2021/11/11 03:22:20;;;;;;;1999.90;999.90;;;1.10;99.90;;;;;;4975247;28;20183;-82
2021/11/11 03:24:47;;;;;;;1999.90;999.90;;;1.10;99.90;;;;;;4991386;28;20187;-82
2021/11/11 03:27:12;;;;;;;1999.90;999.90;;;1.10;99.90;;;;;;4991196;28;20751;-83
2021/11/11 03:29:38;;;;;;;1999.90;999.90;;;1.10;99.90;;;;;;4991224;28;20219;-81
2021/11/11 03:32:04;;;;;;;1999.90;999.90;;;1.00;99.90;;;;;;4974925;28;20278;-81
2021/11/11 03:34:30;;;;;;;1999.90;999.90;;;1.10;99.90;;;;;;4991199;28;20180;-82
2021/11/11 03:36:56;;;;;;;1999.90;999.90;;;1.20;99.90;;;;;;4991013;28;20628;-82
2021/11/11 03:39:22;;;;;;;1999.90;999.90;;;1.20;99.90;;;;;;4974501;28;20656;-82
2021/11/11 03:41:48;;;;;;;1999.90;999.90;;;1.20;99.90;;;;;;4992416;28;20208;-83
2021/11/11 03:44:15;;;;;;;1999.90;999.90;;;1.10;99.90;;;;;;4991770;28;20185;-82
2021/11/11 03:46:42;;;;;;;1999.90;999.90;;;1.10;99.90;;;;;;4975184;28;20247;-83
2021/11/11 03:49:08;;;;;;;1999.90;999.90;;;;;;;;;;4974727;28;20255;-83
2021/11/11 03:51:35;;;;;;;1999.90;999.90;;;;;;;;;;4975669;28;20209;-83
2021/11/11 03:54:02;;;;;;;1999.90;999.90;;;;;;;;;;4975158;28;20181;-86
2021/11/11 03:56:28;;;;;;;1999.90;999.90;;;;;;;;;;4974897;28;20292;-84
2021/11/11 03:58:55;;;;;;;1999.90;999.90;;;;;;;;;;4975643;28;20576;-83
2021/11/11 04:01:21;;;;;;;1999.90;999.90;;;;;;;;;;4975410;28;20254;-82
2021/11/11 04:03:48;;;;;;;1999.90;999.90;;;;;;;;;;4975094;28;20560;-85
2021/11/11 04:06:15;;;;;;;1999.90;999.90;;;;;;;;;;4974927;28;20188;-83
2021/11/11 04:08:41;;;;;;;1999.90;999.90;;;;;;;;;;4974541;28;20185;-83
2021/11/11 04:11:08;;;;;;;1999.90;999.90;;;;;;;;;;4974770;28;20213;-81
2021/11/11 04:13:35;;;;;;;1999.90;999.90;;;;;;;;;;4975715;28;20255;-82
2021/11/11 04:16:01;;;;;;;1999.90;999.90;;;;;;;;;;4975786;28;20184;-81
2021/11/11 04:18:28;;;;;;;1999.90;999.90;;;;;;;;;;4975676;28;20200;-80
2021/11/11 04:20:55;;;;;;;1999.90;999.90;;;;;;;;;;4975465;28;20185;-84
2021/11/11 04:23:23;;;;;;;1999.90;999.90;;;;;;;;;;4991694;28;20183;-81
2021/11/11 04:28:39;;;;;;;1999.90;999.90;;;;;;;;;;4988316;28;20208;-81
2021/11/11 04:31:11;;;;;;;1999.90;999.90;;;;;;;;;;4973398;28;20211;-81
2021/11/11 04:33:41;;;;;;;1999.90;999.90;;;;;;;;;;4974067;28;20180;-79
2021/11/11 04:52:10;;;;;;;1999.90;999.90;;;;;;;;;;4988941;28;20204;-81
2021/11/11 05:05:24;;;;;;;1999.90;999.90;;;;;;;;;;4988135;28;20652;-82
2021/11/11 05:07:52;;;;;;;1999.90;999.90;;;;;;;;;;4974093;28;20196;-83
2021/11/11 05:10:19;;;;;;;1999.90;999.90;;;;;;;;;;4974738;28;20195;-82
2021/11/11 05:12:45;;;;;;;1999.90;999.90;;;;;;;;;;4990853;28;20208;-81
2021/11/11 05:15:11;;;;;;;1999.90;999.90;;;;;;;;;;4974125;28;20185;-81
2021/11/11 05:17:41;;;;;;;1999.90;999.90;;;;;;;;;;4973089;28;20205;-83
2021/11/11 05:20:08;;;;;;;1999.90;999.90;;;;;;;;;;4989032;28;20520;-81
2021/11/11 05:22:34;;;;;;;1999.90;999.90;;;;;;;;;;4973133;28;20181;-85
2021/11/11 05:25:01;;;;;;;1999.90;999.90;;;;;;;;;;4973397;28;20181;-82
2021/11/11 05:27:28;;;;;;;1999.90;999.90;;;;;;;;;;4973457;28;20204;-81
2021/11/11 05:29:54;;;;;;;1999.90;999.90;;;;;;;;;;4989754;28;20173;-83
2021/11/11 05:32:20;;;;;;;1999.90;999.90;;;;;;;;;;4990159;28;20610;-83
2021/11/11 05:34:47;;;;;;;1999.90;999.90;;;;;;;;;;4974017;28;20181;-84
2021/11/11 05:37:15;;;;;;;1999.90;999.90;;;;;;;;;;4973898;28;20204;-82
2021/11/11 05:39:42;;;;;;;1999.90;999.90;;;;;;;;;;4979451;28;20189;-83
2021/11/11 05:42:08;;;;;;;1999.90;999.90;;;;;;;;;;4995517;28;20661;-84
2021/11/11 05:44:34;;;;;;;1999.90;999.90;;;;;;;;;;4978721;28;20189;-87
2021/11/11 05:47:01;;;;;;;1999.90;999.90;;;;;;;;;;4976449;28;20221;-84
2021/11/11 05:49:27;;;;;;;1999.90;999.90;;;;;;;;;;4991574;28;20192;-80
2021/11/11 05:51:54;;;;;;;1999.90;999.90;;;;;;;;;;4991577;28;20205;-80
2021/11/11 05:54:20;;;;;;;1999.90;999.90;;;;;;;;;;4991701;28;20600;-79
2021/11/11 05:56:46;;;;;;;1999.90;999.90;;;;;;;;;;4975295;28;20204;-79
2021/11/11 05:59:13;;;;;;;1999.90;999.90;;;;;;;;;;4991530;28;20185;-82
2021/11/11 06:01:39;;;;;;;1999.90;999.90;;;;;;;;;;4991561;28;20187;-77
2021/11/11 06:04:05;;;;;;;1999.90;999.90;;;;;;;;;;4991893;28;20188;-77
2021/11/11 06:06:33;;;;;;;1999.90;999.90;;;;;;;;;;4975278;28;20212;-77
2021/11/11 06:08:59;;;;;;;1999.90;999.90;;;;;;;;;;4976666;28;20176;-76
2021/11/11 06:11:26;;;;;;;1999.90;999.90;;;;;;;;;;4975270;28;20216;-78
2021/11/11 06:13:52;;;;;;;1999.90;999.90;;;;;;;;;;4975001;28;20563;-78
2021/11/11 06:16:21;;;;;;;1999.90;999.90;;;;;;;;;;4991352;28;20640;-79
2021/11/11 06:18:47;;;;;;;1999.90;999.90;;;;;;;;;;4974888;28;20204;-78
2021/11/11 06:21:14;;;;;;;1999.90;999.90;;;;;;;;;;4974884;28;20188;-81
2021/11/11 06:23:40;;;;;;;1999.90;999.90;;;;;;;;;;4991700;28;20193;-79
2021/11/11 06:26:07;;;;;;;1999.90;999.90;;;;;;;;;;4975244;28;20600;-80
2021/11/11 06:28:33;;;;;;;1999.90;999.90;;;;;;;;;;4990385;28;20205;-83
2021/11/11 06:31:00;;;;;;;1999.90;999.90;;;;;;;;;;4974607;28;20205;-79
2021/11/11 06:33:26;;;;;;;1999.90;999.90;;;;;;;;;;4991045;28;20175;-80
2021/11/11 06:35:53;;;;;;;1999.90;999.90;;;;;;;;;;4977759;28;20251;-78
2021/11/11 06:38:20;;;;;;;1999.90;999.90;;;;;;;;;;4975200;28;20205;-76
2021/11/11 06:40:46;;;;;;;1999.90;999.90;;;;;;;;;;4958993;28;20192;-80
2021/11/11 06:43:13;;;;;;;1999.90;999.90;;;;;;;;;;4958652;28;20597;-77
2021/11/11 06:45:42;;;;;;;1999.90;999.90;;;;;;;;;;4959036;28;20599;-79
2021/11/11 06:48:09;;;;;;;1999.90;999.90;;;;;;;;;;4958699;28;20228;-79
2021/11/11 06:50:37;;;;;;;1999.90;999.90;;;;;;;;;;4973240;28;20238;-80
2021/11/11 06:53:03;;;;;;;1999.90;999.90;;;;;;;;;;4974565;28;20216;-79
2021/11/11 06:55:29;;;;;;;1999.90;999.90;;;;;;;;;;4958188;28;20185;-79
2021/11/11 06:57:56;;;;;;;1999.90;999.90;;;;;;;;;;4976610;28;20196;-79
2021/11/11 07:00:23;;;;;;;1999.90;999.90;;;;;;;;;;4960605;28;20588;-79
2021/11/11 07:02:50;;;;;;;1999.90;999.90;;;;;;;;;;4958932;28;20206;-76
2021/11/11 07:05:17;;;;;;;1999.90;999.90;;;;;;;;;;4959221;28;20216;-80
2021/11/11 07:07:44;;;;;;;1999.90;999.90;;;;;;;;;;4974570;28;20219;-79
2021/11/11 07:10:10;;;;;;;1999.90;999.90;;;;;;;;;;4974139;28;20184;-78
2021/11/11 07:12:37;;;;;;;1999.90;999.90;;;;;;;;;;4974157;28;20212;-79
2021/11/11 07:15:06;;;;;;;1999.90;999.90;;;;;;;;;;4958797;28;20188;-80
2021/11/11 07:17:34;;;;;;;1999.90;999.90;;;;;;;;;;4958333;28;20207;-79
2021/11/11 07:20:00;;;;;;;1999.90;999.90;;;;;;;;;;4974672;28;20542;-81
2021/11/11 07:22:27;;;;;;;1999.90;999.90;;;;;;;;;;4975346;28;20185;-84
2021/11/11 07:24:53;;;;;;;1999.90;999.90;;;;;;;;;;4975547;28;20676;-79
2021/11/11 07:27:20;;;;;;;1999.90;999.90;;;;;;;;;;4964477;28;20254;-81
2021/11/11 07:29:46;;;;;;;1999.90;999.90;;;;;;;;;;4979005;28;20273;-79
2021/11/11 07:32:12;;;;;;;1999.90;999.90;;;1.30;99.90;;;;;;4975865;28;20207;-81
2021/11/11 07:34:38;;;;;;;1999.90;999.90;;;;;;;;;;4974891;28;20176;-78
2021/11/11 07:37:05;;;;;;;1999.90;999.90;;;;;;;;;;4968494;28;20207;-77
2021/11/11 07:39:31;;;;;;;1999.90;999.90;;;;;;;;;;4992919;28;20187;-76
2021/11/11 07:41:58;;;;;;;1999.90;999.90;;;;;;;;;;4973677;28;20192;-78
2021/11/11 07:44:24;;;;;;;1999.90;999.90;;;;;;;;;;4957633;28;20277;-79
2021/11/11 07:46:50;;;;;;;1999.90;999.90;;;;;;;;;;4957862;28;20223;-79
2021/11/11 07:49:17;;;;;;;1999.90;999.90;;;;;;;;;;4973704;28;20181;-79
2021/11/11 07:51:44;;;;;;;1999.90;999.90;;;;;;;;;;4973733;28;20207;-84
2021/11/11 07:54:11;;;;;;;1999.90;999.90;;;;;;;;;;4973642;28;20595;-80
2021/11/11 07:56:37;;;;;;;1999.90;999.90;;;;;;;;;;4972836;28;20203;-80
2021/11/11 07:59:03;;;;;;;1999.90;999.90;;;2.00;99.90;;;;;;4973332;28;20176;-81
2021/11/11 08:01:30;;;;;;;1999.90;999.90;;;;;;;;;;4957633;28;20191;-82
2021/11/11 08:03:56;;;;;;;1999.90;999.90;;;;;;;;;;4973887;28;20187;-81
2021/11/11 08:06:23;;;;;;;1999.90;999.90;;;;;;;;;;4957669;28;20191;-79
2021/11/11 08:08:50;;;;;;;1999.90;999.90;;;;;;;;;;4973867;28;20453;-80
2021/11/11 08:11:16;;;;;;;1999.90;999.90;;;;;;;;;;4974346;28;20196;-82
2021/11/11 08:13:43;;;;;;;1999.90;999.90;;;;;;;;;;4978034;28;20238;-82
2021/11/11 08:16:10;;;;;;;1999.90;999.90;;;;;;;;;;4979218;28;20173;-80
2021/11/11 08:18:37;;;;;;;1999.90;999.90;;;;;;;;;;4979723;28;20183;-81
2021/11/11 08:21:03;;;;;;;1999.90;999.90;;;;;;;;;;4980373;28;20239;-80
2021/11/11 08:23:29;;;;;;;1999.90;999.90;;;;;;;;;;4979307;28;20181;-80
2021/11/11 08:26:00;;;;;;;1999.90;999.90;;;;;;;;;;4980316;28;20193;-80
2021/11/11 08:28:26;;;;;;;1999.90;999.90;;;;;;;;;;4979379;28;20287;-81
2021/11/11 08:30:52;;;;;;;1999.90;999.90;;;;;;;;;;4978512;28;20336;-80
2021/11/11 08:33:18;;;;;;;1999.90;999.90;;;;;;;;;;4977557;28;20184;-81
2021/11/11 08:35:44;;;;;;;1999.90;999.90;;;;;;;;;;4976868;28;20683;-81
2021/11/11 08:38:11;;;;;;;1999.90;999.90;;;;;;;;;;4978141;28;20208;-82
2021/11/11 08:40:37;;;;;;;1999.90;999.90;;;;;;;;;;4977394;28;20641;-82
2021/11/11 08:43:04;;;;;;;1999.90;999.90;;;;;;;;;;4978336;28;20181;-82
2021/11/11 08:45:30;;;;;;;1999.90;999.90;;;;;;;;;;4980227;28;20189;-82
2021/11/11 08:47:56;;;;;;;1999.90;999.90;;;;;;;;;;4978180;28;20267;-82
2021/11/11 08:50:24;;;;;;;1999.90;999.90;;;;;;;;;;4993698;28;20183;-80
2021/11/11 08:52:54;;;;;;;1999.90;999.90;;;;;;;;;;4981466;28;20523;-81
2021/11/11 08:55:21;;;;;;;1999.90;999.90;;;;;;;;;;4998178;28;20226;-82
2021/11/11 08:57:46;;;;;;;1999.90;999.90;;;3.60;99.90;;;;;;4999146;28;20608;-81
2021/11/11 09:00:15;;;;;;;1999.90;999.90;;;3.70;99.90;;;;;;4997796;28;20176;-81
2021/11/11 09:02:45;;;;;;;1999.90;999.90;;;3.90;99.90;;;;;;4962731;28;20271;-79
2021/11/11 09:05:11;;;;;;;1999.90;999.90;;;3.90;99.90;;;;;;4975473;28;20190;-80
2021/11/11 09:07:39;;;;;;;1999.90;999.90;;;4.10;99.90;;;;;;4974841;28;20278;-78
2021/11/11 09:10:07;;;;;;;1999.90;999.90;;;4.20;99.90;;;;;;4991412;28;20641;-80
2021/11/11 09:12:32;;;;;;;1999.90;999.90;;;4.30;99.90;;;;;;4969608;28;21004;-80
2021/11/11 09:14:59;;;;;;;1999.90;999.90;;;4.50;99.90;;;;;;4974078;28;20191;-78
2021/11/11 09:17:24;;;;;;;1999.90;999.90;;;4.50;99.90;;;;;;4955443;28;20262;-78
2021/11/11 09:20:41;;;;;;;1999.90;999.90;;;;;;;;;;5096222;27;20691;-81
2021/11/11 09:23:07;;;;;;;1999.90;999.90;;;;;;;;;;5077696;28;20638;-82
2021/11/11 09:25:33;;;;;;;1999.90;999.90;;;;;;;;;;5095854;28;20369;-81
2021/11/11 09:28:00;;;;;;;1999.90;999.90;;;;;;;;;;5078792;28;20192;-82
2021/11/11 09:30:27;;;;;;;1999.90;999.90;;;;;;;;;;5078600;28;20197;-80
2021/11/11 09:32:53;;;;;;;1999.90;999.90;;;5.40;99.90;;;;;;5077931;28;20181;-80
2021/11/11 09:35:19;;;;;;;1999.90;999.90;;;5.40;99.90;;;;;;5052058;28;20180;-81
2021/11/11 09:37:45;;;;;;;1999.90;999.90;;;;;;;;;;5091114;28;20170;-81
2021/11/11 09:40:14;;;;;;;1999.90;999.90;;;;;;;;;;5074367;28;20227;-80
2021/11/11 09:42:43;;;;;;;1999.90;999.90;;;;;;;;;;5059791;28;20217;-80
2021/11/11 09:45:12;;;;;;;1999.90;999.90;;;;;;;;;;5057670;28;20178;-80
2021/11/11 09:47:40;;;;;;;1999.90;999.90;;;;;;;;;;5073924;28;20300;-80
2021/11/11 09:50:06;;;;;;;1999.90;999.90;;;;;;;;;;5057723;28;20202;-81
2021/11/11 09:52:33;;;;;;;1999.90;999.90;;;;;;;;;;5074126;28;20221;-81
2021/11/11 10:00:28;;;;;;;1999.90;999.90;;;;;;;;;;5073260;28;20244;-79
2021/11/11 10:02:55;;;;;;;1999.90;999.90;;;;;;;;;;5079944;28;20181;-81
2021/11/11 10:05:21;;;;;;;1999.90;999.90;;;;;;;;;;5056846;28;20173;-81
2021/11/11 10:07:47;;;;;;;1999.90;999.90;;;;;;;;;;5073237;28;20174;-79
2021/11/11 10:10:30;;;;;;;1999.90;999.90;;;;;;;;;;5074005;28;20212;-80
2021/11/11 10:13:15;;;;;;;1999.90;999.90;;;;;;;;;;5076673;28;20650;-81
2021/11/11 10:15:59;;;;;;;1999.90;999.90;;;;;;;;;;5092362;28;20639;-76
2021/11/11 10:18:42;;;;;;;1999.90;999.90;;;;;;;;;;5086432;28;20173;-78
2021/11/11 10:21:26;;;;;;;1999.90;999.90;;;;;;;;;;5069515;28;20290;-78
2021/11/11 10:23:52;;;;;;;1999.90;999.90;;;;;;;;;;5087665;28;20273;-78
2021/11/11 10:26:33;;;;;;;1999.90;999.90;;;;;;;;;;5069534;28;20183;-78
2021/11/11 10:28:59;;;;;;;1999.90;999.90;;;;;;;;;;5070578;28;20264;-77
2021/11/11 10:31:25;;;;;;;1999.90;999.90;;;;;;;;;;5059682;28;20794;-78
2021/11/11 10:34:17;;;;;;;1999.90;999.90;;;;;;;;;;5056306;28;20188;-78
2021/11/11 10:36:47;;;;;;;1999.90;999.90;;;;;;;;;;5033297;28;20192;-77
2021/11/11 10:39:15;;;;;;;1999.90;999.90;;;;;;;;;;5016961;28;20227;-76
2021/11/11 10:41:41;;;;;;;1999.90;999.90;;;;;;;;;;5033914;28;20175;-78
2021/11/11 10:44:17;;;;;;;1999.90;999.90;;;;;;;;;;5033962;28;20184;-78
2021/11/11 10:46:44;;;;;;;1999.90;999.90;;;;;;;;;;5019572;28;20166;-78
2021/11/11 10:49:20;;;;;;;1999.90;999.90;;;;;;;;;;5019624;28;20189;-79
2021/11/11 10:51:46;;;;;;;1999.90;999.90;;;;;;;;;;5016612;28;20193;-79
2021/11/11 10:54:12;;;;;;;1999.90;999.90;;;;;;;;;;5016282;28;20680;-79
2021/11/11 10:56:45;;;;;;;1999.90;999.90;;;;;;;;;;5032584;28;20182;-79
2021/11/11 10:59:12;;;;;;;1999.90;999.90;;;;;;;;;;5066047;28;20739;-79
2021/11/11 11:01:38;;;;;;;1999.90;999.90;;;;;;;;;;5055914;28;20269;-79
2021/11/11 11:04:04;;;;;;;1999.90;999.90;;;;;;;;;;5055978;28;20212;-79
2021/11/11 11:06:31;;;;;;;1999.90;999.90;;;;;;;;;;5055624;28;20268;-79
2021/11/11 11:08:59;;;;;;;1999.90;999.90;;;;;;;;;;5072364;28;20177;-79
2021/11/11 11:11:33;;;;;;;1999.90;999.90;;;;;;;;;;5055604;28;20584;-79
2021/11/11 11:14:02;;;;;;;1999.90;999.90;;;;;;;;;;5055580;28;20542;-79
2021/11/11 11:16:29;;;;;;;1999.90;999.90;;;;;;;;;;5055490;28;20285;-79
2021/11/11 11:19:03;;;;;;;1999.90;999.90;;;;;;;;;;5055338;28;20219;-79
2021/11/11 11:21:32;;;;;;;1999.90;999.90;;;;;;;;;;5072058;28;20193;-79
2021/11/11 11:23:59;;;;;;;1999.90;999.90;;;;;;;;;;5055252;28;20276;-79
2021/11/11 11:26:25;;;;;;;1999.90;999.90;;;;;;;;;;5055107;28;20239;-79
2021/11/11 11:29:07;;;;;;;1999.90;999.90;;;;;;;;;;5054991;28;20183;-79
2021/11/11 11:31:46;;;;;;;1999.90;999.90;;;;;;;;;;5056792;28;20170;-79
2021/11/11 11:34:17;;;;;;;1999.90;999.90;;;;;;;;;;5072868;28;20251;-79
2021/11/11 11:36:47;;;;;;;1999.90;999.90;;;;;;;;;;5055074;28;20181;-78
2021/11/11 11:39:18;;;;;;;1999.90;999.90;;;;;;;;;;5054918;28;20210;-79
2021/11/11 11:41:44;;;;;;;1999.90;999.90;;;;;;;;;;5056371;28;20172;-80
2021/11/11 11:44:23;;;;;;;1999.90;999.90;;;;;;;;;;5073051;28;20178;-79
2021/11/11 11:47:02;;;;;;;1999.90;999.90;;;;;;;;;;5054945;28;20185;-79
2021/11/11 11:49:29;;;;;;;1999.90;999.90;;;;;;;;;;5051323;28;20218;-79
2021/11/11 11:51:55;;;;;;;1999.90;999.90;;;;;;;;;;5051372;28;20267;-79
2021/11/11 11:54:26;;;;;;;1999.90;999.90;;;;;;;;;;5051291;28;20187;-78
2021/11/11 11:56:57;;;;;;;1999.90;999.90;;;;;;;;;;5032070;28;20185;-79
2021/11/11 11:59:28;;;;;;;1999.90;999.90;;;;;;;;;;5035096;28;20270;-79
2021/11/11 12:07:21;;;;;;;1999.90;999.90;;;;;;;;;;5051274;28;20186;-79
2021/11/11 12:12:44;;;;;;;1999.90;999.90;;;;;;;;;;5050953;28;20708;-78
2021/11/11 12:16:11;;;;;;;1999.90;999.90;;;;;;;;;;5037730;28;20659;-78
2021/11/11 12:40:27;;;;;;;1999.90;999.90;;;;;;;;;;5063733;28;20608;-79
2021/11/11 12:42:55;;;;;;;1999.90;999.90;;;;;;;;;;5070898;28;20194;-79
2021/11/11 12:45:27;;;;;;;1999.90;999.90;;;;;;;;;;5054382;28;20175;-79
2021/11/11 12:48:04;;;;;;;1999.90;999.90;;;;;;;;;;5070900;28;20641;-80
2021/11/11 12:50:30;;;;;;;1999.90;999.90;;;;;;;;;;5070198;28;20194;-79
2021/11/11 12:53:12;;;;;;;1999.90;999.90;;;;;;;;;;5071480;28;20594;-79
2021/11/11 12:55:58;;;;;;;1999.90;999.90;;;;;;;;;;5070145;28;20181;-79
2021/11/11 12:58:43;;;;;;;1999.90;999.90;;;;;;;;;;5069116;28;20231;-79
2021/11/11 13:01:11;;;;;;;1999.90;999.90;;;;;;;;;;5071263;28;20230;-81
2021/11/11 13:03:47;;;;;;;1999.90;999.90;;;;;;;;;;5071327;28;20550;-80
2021/11/11 13:06:13;;;;;;;1999.90;999.90;;;;;;;;;;5070066;28;20191;-79
2021/11/11 13:08:56;;;;;;;1999.90;999.90;;;;;;;;;;5069957;28;20187;-80
2021/11/11 13:11:28;;;;;;;1999.90;999.90;;;;;;;;;;5069897;28;20203;-79
2021/11/11 13:14:21;;;;;;;1999.90;999.90;;;;;;;;;;5053341;28;20191;-79
2021/11/11 13:16:56;;;;;;;1999.90;999.90;;;;;;;;;;5068805;28;20281;-79
2021/11/11 13:19:31;;;;;;;1999.90;999.90;;;;;;;;;;5069678;28;20242;-79
2021/11/11 13:22:02;;;;;;;1999.90;999.90;;;;;;;;;;5053218;28;20183;-79
2021/11/11 13:24:42;;;;;;;1999.90;999.90;;;;;;;;;;5054002;28;20194;-79
2021/11/11 13:43:50;;;;;;;1999.90;999.90;;;;;;;;;;5070763;28;20171;-80
2021/11/11 14:01:43;;;;;;;1999.90;999.90;;;;;;;;;;5016212;28;20291;-80
2021/11/11 16:28:05;;;;;;;1999.90;999.90;;;;;;;;;;5056233;28;20196;-80
2021/11/11 16:30:32;;;;;;;1999.90;999.90;;;;;;;;;;5071550;28;20203;-79
2021/11/11 16:32:58;;;;;;;1999.90;999.90;;;;;;;;;;5054165;28;20602;-79
2021/11/11 16:35:24;;;;;;;1999.90;999.90;;;;;;;;;;5049442;28;20187;-80
2021/11/11 16:37:51;;;;;;;1999.90;999.90;;;;;;;;;;5055736;28;20228;-80
2021/11/11 16:40:18;;;;;;;1999.90;999.90;;;;;;;;;;5049604;28;20208;-79
2021/11/11 16:42:44;;;;;;;1999.90;999.90;;;;;;;;;;5070319;28;20202;-80
2021/11/11 16:45:10;;;;;;;1999.90;999.90;;;;;;;;;;5057531;28;20180;-79
2021/11/11 16:47:36;;;;;;;1999.90;999.90;;;;;;;;;;5058251;28;20216;-79
2021/11/11 16:50:02;;;;;;;1999.90;999.90;;;;;;;;;;5055787;28;20247;-79
2021/11/11 16:52:29;;;;;;;1999.90;999.90;;;;;;;;;;5055696;28;20254;-80
2021/11/11 16:54:55;;;;;;;1999.90;999.90;;;;;;;;;;5047101;28;20328;-80
2021/11/11 16:57:21;;;;;;;1999.90;999.90;;;;;;;;;;5053471;28;20185;-81
2021/11/11 16:59:47;;;;;;;1999.90;999.90;;;;;;;;;;5071355;28;20674;-80
2021/11/11 17:02:13;;;;;;;1999.90;999.90;;;;;;;;;;5051579;28;20188;-81
2021/11/11 17:04:39;;;;;;;1999.90;999.90;;;;;;;;;;5046598;28;20300;-81
2021/11/11 17:07:05;;;;;;;1999.90;999.90;;;;;;;;;;5043824;28;20216;-81
2021/11/11 17:09:32;;;;;;;1999.90;999.90;;;;;;;;;;5038123;28;20268;-80
2021/11/11 17:11:58;;;;;;;1999.90;999.90;;;;;;;;;;5052279;28;20178;-80
2021/11/11 17:14:27;;;;;;;1999.90;999.90;;;;;;;;;;5038460;28;20632;-80
2021/11/11 17:16:54;;;;;;;1999.90;999.90;;;;;;;;;;5052923;28;20187;-80
2021/11/11 17:19:21;;;;;;;1999.90;999.90;;;;;;;;;;5053888;28;20202;-81
2021/11/11 17:21:48;;;;;;;1999.90;999.90;;;;;;;;;;5055011;28;20181;-81
2021/11/11 17:24:16;;;;;;;1999.90;999.90;;;;;;;;;;5053862;28;20252;-81
2021/11/11 17:27:19;;;;;;;1999.90;999.90;;;;;;;;;;5037829;28;20182;-81